Time;durP1;ratioP1;P1;durP2;ratioP2;P2;SDS_P1;SDS_P2;PMS_P1;PMS_P2;Temp;Humidity;BMP_temperature;BMP_pressure;BME280_temperature;BME280_humidity;BME280_pressure;Samples;Min_cycle;Max_cycle;Signal;HPM_P1;HPM_P2
2021/09/13 00:04:19;;;;;;;9.60;4.15;;;;;;;;;;6147044;23;20220;31
2021/09/13 00:18:42;;;;;;;10.05;4.50;;;;;;;;;;6347165;22;20215;31
2021/09/13 00:32:21;;;;;;;6.43;4.20;;;;;;;;;;6230461;22;20193;31
2021/09/13 00:39:31;;;;;;;4.80;3.90;;;;;;;;;;6201242;22;20197;31
2021/09/13 00:57:50;;;;;;;7.85;4.03;;;;;;;;;;6294748;22;20514;31
2021/09/13 01:11:03;;;;;;;7.15;3.55;;;;;;;;;;6294961;22;20506;31
2021/09/13 01:17:42;;;;;;;12.57;4.22;;;;;;;;;;6327424;22;20518;31
2021/09/13 01:38:18;;;;;;;7.75;3.25;;;;;;;;;;6293300;22;23362;31
2021/09/13 01:44:56;;;;;;;9.63;3.33;;;;;;;;;;6231702;22;20760;31
2021/09/13 01:59:06;;;;;;;6.20;2.60;;;;;;;;;;6326796;22;20517;31
2021/09/13 02:15:00;;;;;;;4.90;2.30;;;;;;;;;;6262129;22;20208;31
2021/09/13 02:21:50;;;;;;;5.75;2.42;;;;;;;;;;6267652;22;20200;-61
2021/09/13 02:24:16;;;;;;;11.10;3.30;;;;;;;;;;6285597;22;20579;-61
2021/09/13 02:26:42;;;;;;;7.00;2.78;;;;;;;;;;6285488;22;20166;-61
2021/09/13 02:29:07;;;;;;;8.38;2.72;;;;;;;;;;6285575;22;20217;-61
2021/09/13 02:31:33;;;;;;;4.90;2.70;;;;;;;;;;6285493;22;20143;-62
2021/09/13 02:33:59;;;;;;;3.90;3.03;;;;;;;;;;6285837;22;20143;-62
2021/09/13 02:36:25;;;;;;;5.65;2.70;;;;;;;;;;6285725;22;20142;-62
2021/09/13 02:38:51;;;;;;;4.45;2.83;;;;;;;;;;6285082;22;20175;-62
2021/09/13 02:41:17;;;;;;;4.35;2.50;;;;;;;;;;6285554;22;20536;-62
2021/09/13 02:43:43;;;;;;;5.40;2.83;;;;;;;;;;6285046;22;20146;-62
2021/09/13 02:46:09;;;;;;;6.70;2.95;;;;;;;;;;6285094;22;20139;-62
2021/09/13 02:48:35;;;;;;;5.32;2.70;;;;;;;;;;6285274;22;20438;-62
2021/09/13 02:51:01;;;;;;;4.28;3.20;;;;;;;;;;6284948;22;20220;-62
2021/09/13 02:53:27;;;;;;;9.55;3.08;;;;;;;;;;6284787;22;20143;-61
2021/09/13 02:55:53;;;;;;;3.67;2.80;;;;;;;;;;6284774;22;20452;-62
2021/09/13 02:58:19;;;;;;;7.70;3.38;;;;;;;;;;6284978;22;20166;-62
2021/09/13 03:00:45;;;;;;;7.13;3.10;;;;;;;;;;6284749;22;20570;-62
2021/09/13 03:03:11;;;;;;;5.90;3.13;;;;;;;;;;6284632;22;20153;-62
2021/09/13 03:05:37;;;;;;;4.25;3.10;;;;;;;;;;6284782;22;20139;-61
2021/09/13 03:08:03;;;;;;;6.72;3.13;;;;;;;;;;6284569;22;20143;-61
2021/09/13 03:10:29;;;;;;;7.60;3.15;;;;;;;;;;6284694;22;20222;-61
2021/09/13 03:12:55;;;;;;;4.30;3.30;;;;;;;;;;6284891;22;20149;-61
2021/09/13 03:15:21;;;;;;;6.22;3.63;;;;;;;;;;6284549;22;20174;-60
2021/09/13 03:17:47;;;;;;;4.13;3.38;;;;;;;;;;6284365;22;20242;-61
2021/09/13 03:20:13;;;;;;;7.97;3.85;;;;;;;;;;6284926;22;20214;-61
2021/09/13 03:22:39;;;;;;;8.60;3.53;;;;;;;;;;6284277;22;20204;-62
2021/09/13 03:25:05;;;;;;;5.35;3.20;;;;;;;;;;6284468;22;20218;-62
2021/09/13 03:27:31;;;;;;;7.55;3.45;;;;;;;;;;6284647;22;20150;-62
2021/09/13 03:29:57;;;;;;;5.03;2.83;;;;;;;;;;6252506;22;20143;-62
2021/09/13 03:32:23;;;;;;;5.90;2.70;;;;;;;;;;6277403;22;20447;-61
2021/09/13 03:34:49;;;;;;;5.47;2.10;;;;;;;;;;6277494;22;20139;-62
2021/09/13 03:37:15;;;;;;;2.90;2.20;;;;;;;;;;6277258;22;20246;-62
2021/09/13 03:39:41;;;;;;;5.47;2.38;;;;;;;;;;6277446;22;20222;-62
2021/09/13 03:42:07;;;;;;;5.75;1.92;;;;;;;;;;6277269;22;20136;-62
2021/09/13 03:44:33;;;;;;;1.90;1.58;;;;;;;;;;6277207;22;20544;-62
2021/09/13 03:46:59;;;;;;;3.33;1.80;;;;;;;;;;6277205;22;20140;-62
2021/09/13 03:49:25;;;;;;;3.45;1.70;;;;;;;;;;6277426;22;20139;-62
2021/09/13 03:51:51;;;;;;;3.58;1.88;;;;;;;;;;6277183;22;20140;-62
2021/09/13 03:54:17;;;;;;;4.07;1.60;;;;;;;;;;6277070;22;20631;-63
2021/09/13 03:56:43;;;;;;;5.40;2.00;;;;;;;;;;6277087;22;20250;-62
2021/09/13 03:59:09;;;;;;;7.47;1.65;;;;;;;;;;6276946;22;20228;-62
2021/09/13 04:01:34;;;;;;;3.20;1.98;;;;;;;;;;6277053;22;20147;-62
2021/09/13 04:04:02;;;;;;;5.07;2.00;;;;;;;;;;6276936;22;20147;-62
2021/09/13 04:06:41;;;;;;;7.35;2.08;;;;;;;;;;6277336;22;20148;-63
2021/09/13 04:09:47;;;;;;;5.55;2.08;;;;;;;;;;6277310;22;20142;-63
2021/09/13 04:12:00;;;;;;;6.72;2.25;;;;;;;;;;6271390;22;20159;-63
2021/09/13 04:14:30;;;;;;;6.10;2.53;;;;;;;;;;6277233;22;20151;-63
2021/09/13 04:16:57;;;;;;;7.45;2.50;;;;;;;;;;6276888;22;20557;-63
2021/09/13 04:19:23;;;;;;;10.05;2.50;;;;;;;;;;6276769;22;20135;-63
2021/09/13 04:21:53;;;;;;;8.68;2.55;;;;;;;;;;6276712;22;20216;-63
2021/09/13 04:24:20;;;;;;;8.98;2.15;;;;;;;;;;6276844;22;20120;-63
2021/09/13 04:26:46;;;;;;;9.18;2.50;;;;;;;;;;6276810;22;20218;-63
2021/09/13 04:29:12;;;;;;;9.15;2.70;;;;;;;;;;6277023;22;20171;-63
2021/09/13 04:31:38;;;;;;;7.72;2.80;;;;;;;;;;6277161;22;20431;-63
2021/09/13 04:34:04;;;;;;;8.25;2.90;;;;;;;;;;6276526;22;20151;-63
2021/09/13 04:36:30;;;;;;;11.93;3.13;;;;;;;;;;6276693;22;20140;-63
2021/09/13 04:38:56;;;;;;;9.98;3.20;;;;;;;;;;6276733;22;20189;-63
2021/09/13 04:41:22;;;;;;;10.75;2.95;;;;;;;;;;6276159;22;20136;-63
2021/09/13 04:43:48;;;;;;;8.40;2.55;;;;;;;;;;6276936;22;20429;-63
2021/09/13 04:46:14;;;;;;;7.13;2.72;;;;;;;;;;6276959;22;20292;-63
2021/09/13 04:48:40;;;;;;;10.00;2.85;;;;;;;;;;6276529;22;20230;-63
2021/09/13 04:51:07;;;;;;;10.07;2.90;;;;;;;;;;6276536;22;20139;-63
2021/09/13 04:53:33;;;;;;;11.18;3.47;;;;;;;;;;6276590;22;20560;-63
2021/09/13 04:55:59;;;;;;;15.20;3.75;;;;;;;;;;6277012;22;20175;-63
2021/09/13 04:58:25;;;;;;;14.10;2.88;;;;;;;;;;6276883;22;20185;-63
2021/09/13 05:00:50;;;;;;;9.15;2.75;;;;;;;;;;6277217;22;20496;-63
2021/09/13 05:03:16;;;;;;;8.57;2.65;;;;;;;;;;6276610;22;20136;-63
2021/09/13 05:05:42;;;;;;;8.35;2.42;;;;;;;;;;6276704;22;20147;-63
2021/09/13 05:08:08;;;;;;;7.97;2.72;;;;;;;;;;6277052;22;20139;-63
2021/09/13 05:10:34;;;;;;;6.65;2.10;;;;;;;;;;6276625;22;20447;-63
2021/09/13 05:13:00;;;;;;;9.93;2.97;;;;;;;;;;6276752;22;20545;-63
2021/09/13 05:15:26;;;;;;;6.47;2.38;;;;;;;;;;6277092;22;20451;-63
2021/09/13 05:17:52;;;;;;;9.70;2.42;;;;;;;;;;6277225;22;20163;-62
2021/09/13 05:20:18;;;;;;;5.63;1.92;;;;;;;;;;6277029;22;20146;-63
2021/09/13 05:22:44;;;;;;;5.43;1.80;;;;;;;;;;6277198;22;20162;-63
2021/09/13 05:25:10;;;;;;;6.03;1.83;;;;;;;;;;6277065;22;20424;-63
2021/09/13 05:27:36;;;;;;;5.63;1.73;;;;;;;;;;6277539;22;20492;-63
2021/09/13 05:30:03;;;;;;;7.25;1.80;;;;;;;;;;6277107;22;20140;-63
2021/09/13 05:32:30;;;;;;;7.03;1.80;;;;;;;;;;6277152;22;20140;-63
2021/09/13 05:34:56;;;;;;;7.68;1.70;;;;;;;;;;6276962;22;20471;-63
2021/09/13 05:37:22;;;;;;;8.30;2.00;;;;;;;;;;6276969;22;20178;-63
2021/09/13 05:39:48;;;;;;;5.03;1.55;;;;;;;;;;6276863;22;20136;-63
2021/09/13 05:42:13;;;;;;;10.27;2.42;;;;;;;;;;6276920;22;20174;-63
2021/09/13 05:44:41;;;;;;;9.93;2.30;;;;;;;;;;6276894;22;20140;-63
2021/09/13 05:47:07;;;;;;;7.32;1.73;;;;;;;;;;6277136;22;20140;-63
2021/09/13 05:49:33;;;;;;;7.15;1.88;;;;;;;;;;6276676;22;20147;-63
2021/09/13 05:51:59;;;;;;;6.65;1.67;;;;;;;;;;6276472;22;20132;-63
2021/09/13 05:54:25;;;;;;;9.07;1.98;;;;;;;;;;6276523;22;20136;-63
2021/09/13 05:56:52;;;;;;;5.68;1.95;;;;;;;;;;6276958;22;20136;-66
2021/09/13 05:59:18;;;;;;;5.80;1.98;;;;;;;;;;6276817;22;20143;-63
2021/09/13 06:01:44;;;;;;;5.70;1.70;;;;;;;;;;6276848;22;20143;-63
2021/09/13 06:04:10;;;;;;;6.80;2.08;;;;;;;;;;6276314;22;20154;-63
2021/09/13 06:06:36;;;;;;;5.85;2.10;;;;;;;;;;6276813;22;20242;-63
2021/09/13 06:09:02;;;;;;;7.45;1.50;;;;;;;;;;6276752;22;20179;-62
2021/09/13 06:11:28;;;;;;;7.78;1.85;;;;;;;;;;6276433;22;20654;-62
2021/09/13 06:13:54;;;;;;;7.10;2.05;;;;;;;;;;6276365;22;20571;-62
2021/09/13 06:16:20;;;;;;;7.82;1.98;;;;;;;;;;6276577;22;20144;-62
2021/09/13 06:18:46;;;;;;;7.40;1.70;;;;;;;;;;6276242;22;20174;-62
2021/09/13 06:21:12;;;;;;;7.05;2.13;;;;;;;;;;6276071;22;20143;-62
2021/09/13 06:23:38;;;;;;;7.38;2.20;;;;;;;;;;6276238;22;20190;-62
2021/09/13 06:26:04;;;;;;;6.93;2.10;;;;;;;;;;6276126;22;20139;-62
2021/09/13 06:28:30;;;;;;;4.32;1.90;;;;;;;;;;6276677;22;20150;-63
2021/09/13 06:30:56;;;;;;;6.15;2.08;;;;;;;;;;6276134;22;20150;-63
2021/09/13 06:33:22;;;;;;;5.28;1.65;;;;;;;;;;6276318;22;20513;-63
2021/09/13 06:35:48;;;;;;;4.50;1.83;;;;;;;;;;6276348;22;20163;-63
2021/09/13 06:38:14;;;;;;;9.10;2.10;;;;;;;;;;6276395;22;20163;-63
2021/09/13 06:40:40;;;;;;;7.68;1.85;;;;;;;;;;6276040;22;20162;-62
2021/09/13 06:43:07;;;;;;;4.55;1.60;;;;;;;;;;6276064;22;20146;-62
2021/09/13 06:45:40;;;;;;;2.78;1.80;;;;;;;;;;6276299;22;20152;-62
2021/09/13 06:48:06;;;;;;;7.40;1.95;;;;;;;;;;6276554;22;20138;-62
2021/09/13 06:50:32;;;;;;;5.95;1.77;;;;;;;;;;6276026;22;20147;-63
2021/09/13 06:52:58;;;;;;;6.13;1.75;;;;;;;;;;6276091;22;20591;-62
2021/09/13 06:55:24;;;;;;;6.55;1.83;;;;;;;;;;6275964;22;20146;-62
2021/09/13 06:57:51;;;;;;;7.80;1.98;;;;;;;;;;6276298;22;20217;-63
2021/09/13 07:00:17;;;;;;;7.85;1.95;;;;;;;;;;6276326;22;20143;-63
2021/09/13 07:02:44;;;;;;;7.68;2.45;;;;;;;;;;6275904;22;20613;-63
2021/09/13 07:05:11;;;;;;;8.85;1.70;;;;;;;;;;6277133;22;20163;-63
2021/09/13 07:07:37;;;;;;;5.72;2.45;;;;;;;;;;6278015;22;20556;-62
2021/09/13 07:10:07;;;;;;;6.80;1.73;;;;;;;;;;6278144;22;20147;-62
2021/09/13 07:12:34;;;;;;;9.50;1.67;;;;;;;;;;6277836;22;20572;-62
2021/09/13 07:15:00;;;;;;;8.38;1.92;;;;;;;;;;6277811;22;20218;-63
2021/09/13 07:17:26;;;;;;;9.10;2.10;;;;;;;;;;6278014;22;20201;-61
2021/09/13 07:19:52;;;;;;;5.65;2.03;;;;;;;;;;6278039;22;20528;-63
2021/09/13 07:22:19;;;;;;;7.47;2.38;;;;;;;;;;6277579;22;20158;-61
2021/09/13 07:24:45;;;;;;;5.95;1.92;;;;;;;;;;6277622;22;20135;-61
2021/09/13 07:27:11;;;;;;;5.38;2.20;;;;;;;;;;6277859;22;20150;-61
2021/09/13 07:29:38;;;;;;;4.90;1.77;;;;;;;;;;6277511;22;20222;-61
2021/09/13 07:32:04;;;;;;;5.60;2.20;;;;;;;;;;6277892;22;20167;-62
2021/09/13 07:34:30;;;;;;;5.85;1.70;;;;;;;;;;6277649;22;20149;-61
2021/09/13 07:36:56;;;;;;;9.15;1.92;;;;;;;;;;6277422;22;20571;-63
2021/09/13 07:39:23;;;;;;;8.85;2.20;;;;;;;;;;6277799;22;20151;-62
2021/09/13 07:41:49;;;;;;;7.90;1.90;;;;;;;;;;6277407;22;20181;-62
2021/09/13 07:44:14;;;;;;;9.35;2.22;;;;;;;;;;6277511;22;20189;-62
2021/09/13 07:46:40;;;;;;;5.93;1.83;;;;;;;;;;6277422;22;20135;-62
2021/09/13 07:49:07;;;;;;;6.10;2.08;;;;;;;;;;6277438;22;20142;-62
2021/09/13 07:51:33;;;;;;;6.32;1.75;;;;;;;;;;6277748;22;20411;-62
2021/09/13 07:53:59;;;;;;;5.78;1.95;;;;;;;;;;6277499;22;20173;-62
2021/09/13 07:56:25;;;;;;;6.57;1.98;;;;;;;;;;6277313;22;20622;-62
2021/09/13 07:58:51;;;;;;;5.70;2.05;;;;;;;;;;6277411;22;20511;-62
2021/09/13 08:01:17;;;;;;;6.63;2.42;;;;;;;;;;6277287;22;20218;-61
2021/09/13 08:03:43;;;;;;;5.53;2.15;;;;;;;;;;6277320;22;20139;-62
2021/09/13 08:06:09;;;;;;;8.30;1.88;;;;;;;;;;6277530;22;20629;-62
2021/09/13 08:08:35;;;;;;;6.95;2.42;;;;;;;;;;6277272;22;20481;-62
2021/09/13 08:11:01;;;;;;;10.45;2.25;;;;;;;;;;6277117;22;20147;-63
2021/09/13 08:13:27;;;;;;;5.32;2.10;;;;;;;;;;6277259;22;20144;-64
2021/09/13 08:15:53;;;;;;;4.32;1.38;;;;;;;;;;6277125;22;20218;-63
2021/09/13 08:18:19;;;;;;;7.63;1.98;;;;;;;;;;6277186;22;20592;-62
2021/09/13 08:20:45;;;;;;;6.63;2.80;;;;;;;;;;6277062;22;20165;-63
2021/09/13 08:23:11;;;;;;;6.85;2.05;;;;;;;;;;6277060;22;20155;-61
2021/09/13 08:25:37;;;;;;;9.52;1.90;;;;;;;;;;6277012;22;20567;-63
2021/09/13 08:28:03;;;;;;;6.43;1.73;;;;;;;;;;6277107;22;20552;-62
2021/09/13 08:30:29;;;;;;;5.95;2.10;;;;;;;;;;6277153;22;20167;-61
2021/09/13 08:32:55;;;;;;;4.75;1.70;;;;;;;;;;6277083;22;20204;-62
2021/09/13 08:35:21;;;;;;;6.20;1.80;;;;;;;;;;6277409;22;20147;-62
2021/09/13 08:37:47;;;;;;;5.22;1.92;;;;;;;;;;6277261;22;20186;-62
2021/09/13 08:40:13;;;;;;;6.18;2.10;;;;;;;;;;6277074;22;20135;-63
2021/09/13 08:42:47;;;;;;;4.53;1.73;;;;;;;;;;6277342;22;20170;-63
2021/09/13 08:45:16;;;;;;;7.10;2.00;;;;;;;;;;6277471;22;20186;-62
2021/09/13 08:52:58;;;;;;;4.63;2.10;;;;;;;;;;6287606;22;20146;-62
2021/09/13 08:55:24;;;;;;;5.78;1.70;;;;;;;;;;6277402;22;20144;-62
2021/09/13 08:57:51;;;;;;;8.40;1.80;;;;;;;;;;6276914;22;20170;-62
2021/09/13 09:00:18;;;;;;;7.15;2.15;;;;;;;;;;6277109;22;20143;-62
2021/09/13 09:02:44;;;;;;;5.50;2.03;;;;;;;;;;6276725;22;20207;-63
2021/09/13 09:05:10;;;;;;;5.72;1.75;;;;;;;;;;6277441;22;20143;-62
2021/09/13 09:07:53;;;;;;;7.70;2.42;;;;;;;;;;6277614;22;20273;-62
2021/09/13 09:10:23;;;;;;;8.48;2.17;;;;;;;;;;6277683;22;20170;-62
2021/09/13 09:13:15;;;;;;;6.25;1.80;;;;;;;;;;6277646;22;20143;-62
2021/09/13 09:15:58;;;;;;;4.03;1.88;;;;;;;;;;6271776;22;20151;-63
2021/09/13 09:18:24;;;;;;;5.45;2.05;;;;;;;;;;6277379;22;20459;-63
2021/09/13 09:20:51;;;;;;;5.22;2.17;;;;;;;;;;6277142;22;20139;-63
2021/09/13 09:23:17;;;;;;;5.78;1.80;;;;;;;;;;6276589;22;20151;-61
2021/09/13 09:25:43;;;;;;;8.02;1.70;;;;;;;;;;6277149;22;20147;-61
2021/09/13 09:28:15;;;;;;;7.18;1.90;;;;;;;;;;6276454;22;20240;-63
2021/09/13 09:30:42;;;;;;;8.88;1.95;;;;;;;;;;6276904;22;20131;-63
2021/09/13 09:33:26;;;;;;;8.80;2.25;;;;;;;;;;6276517;22;20143;-63
2021/09/13 09:35:59;;;;;;;5.32;1.80;;;;;;;;;;6276631;22;20136;-64
2021/09/13 09:38:35;;;;;;;6.10;1.48;;;;;;;;;;6276489;22;20171;-63
2021/09/13 09:41:04;;;;;;;3.85;1.60;;;;;;;;;;6276921;22;20505;-63
2021/09/13 09:43:31;;;;;;;6.97;1.70;;;;;;;;;;6276377;22;20570;-63
2021/09/13 09:45:57;;;;;;;5.82;1.85;;;;;;;;;;6276352;22;20135;-63
2021/09/13 09:48:28;;;;;;;9.10;2.13;;;;;;;;;;6276516;22;20377;-63
2021/09/13 09:50:54;;;;;;;6.95;1.75;;;;;;;;;;6276662;22;20131;-63
2021/09/13 09:53:21;;;;;;;6.63;2.10;;;;;;;;;;6276124;22;20150;-63
2021/09/13 09:55:52;;;;;;;9.27;2.17;;;;;;;;;;6276535;22;20155;-63
2021/09/13 09:58:18;;;;;;;6.55;1.50;;;;;;;;;;6275730;22;20186;-63
2021/09/13 10:00:45;;;;;;;7.25;1.80;;;;;;;;;;6275785;22;20403;-63
2021/09/13 10:03:11;;;;;;;3.13;1.33;;;;;;;;;;6276376;22;20222;-64
2021/09/13 10:05:37;;;;;;;4.50;1.58;;;;;;;;;;6275986;22;20170;-63
2021/09/13 10:08:04;;;;;;;5.07;1.55;;;;;;;;;;6275874;22;20231;-63
2021/09/13 10:10:31;;;;;;;8.50;2.00;;;;;;;;;;6276155;22;20208;-63
2021/09/13 10:12:57;;;;;;;4.57;1.60;;;;;;;;;;6276276;22;20243;-63
2021/09/13 10:15:24;;;;;;;6.70;1.70;;;;;;;;;;6276454;22;20230;-63
2021/09/13 10:17:50;;;;;;;5.57;1.52;;;;;;;;;;6275774;22;20163;-63
2021/09/13 10:20:17;;;;;;;9.25;1.92;;;;;;;;;;6275979;22;20480;-62
2021/09/13 10:22:44;;;;;;;5.53;2.05;;;;;;;;;;6275709;22;20181;-62
2021/09/13 10:25:10;;;;;;;7.95;2.22;;;;;;;;;;6276409;22;20143;-62
2021/09/13 10:27:37;;;;;;;4.93;1.70;;;;;;;;;;6275998;22;20139;-62
2021/09/13 10:30:10;;;;;;;5.03;1.50;;;;;;;;;;6276125;22;20139;-62
2021/09/13 10:32:36;;;;;;;7.15;2.15;;;;;;;;;;6275861;22;20143;-62
2021/09/13 10:35:02;;;;;;;9.13;1.90;;;;;;;;;;6275685;22;20147;-62
2021/09/13 10:37:38;;;;;;;5.85;1.60;;;;;;;;;;6276010;22;20512;-62
2021/09/13 10:40:08;;;;;;;6.72;1.73;;;;;;;;;;6277014;22;20154;-63
2021/09/13 10:42:34;;;;;;;4.55;1.63;;;;;;;;;;6278216;22;20139;-63
2021/09/13 10:45:09;;;;;;;6.00;1.75;;;;;;;;;;6277702;22;20139;-62
2021/09/13 10:47:36;;;;;;;5.55;2.08;;;;;;;;;;6278232;22;20173;-63
2021/09/13 10:50:23;;;;;;;7.40;1.92;;;;;;;;;;6278151;22;20174;-63
2021/09/13 10:52:50;;;;;;;5.47;1.77;;;;;;;;;;6250995;22;20208;-63
2021/09/13 10:55:17;;;;;;;7.28;1.92;;;;;;;;;;6277908;22;20601;-62
2021/09/13 10:57:52;;;;;;;6.18;2.05;;;;;;;;;;6277597;22;20605;-62
2021/09/13 11:00:37;;;;;;;6.22;1.77;;;;;;;;;;6277827;22;20222;-62
2021/09/13 11:03:21;;;;;;;5.72;1.60;;;;;;;;;;6277532;22;20139;-62
2021/09/13 11:05:47;;;;;;;7.93;1.58;;;;;;;;;;6278137;22;20472;-62
2021/09/13 11:08:23;;;;;;;4.47;1.80;;;;;;;;;;6277407;22;20139;-59
2021/09/13 11:10:49;;;;;;;6.68;1.63;;;;;;;;;;6277713;22;20143;-58
2021/09/13 11:13:17;;;;;;;7.57;1.70;;;;;;;;;;6277919;22;20499;-59
2021/09/13 11:15:50;;;;;;;9.25;1.70;;;;;;;;;;6277899;22;20436;-59
2021/09/13 11:18:34;;;;;;;4.28;1.45;;;;;;;;;;6277647;22;20163;-59
2021/09/13 11:21:19;;;;;;;4.20;1.42;;;;;;;;;;6277566;22;20560;-58
2021/09/13 11:23:56;;;;;;;6.07;1.55;;;;;;;;;;6277788;22;20135;-58
2021/09/13 11:26:32;;;;;;;6.22;1.83;;;;;;;;;;6277498;22;20206;-59
2021/09/13 11:28:58;;;;;;;4.70;1.83;;;;;;;;;;6277169;22;20575;-59
2021/09/13 11:31:30;;;;;;;8.40;1.75;;;;;;;;;;6277784;22;20204;-58
2021/09/13 11:33:57;;;;;;;6.90;1.60;;;;;;;;;;6277712;22;20154;-59
2021/09/13 11:36:23;;;;;;;5.07;1.42;;;;;;;;;;6277300;22;20143;-59
2021/09/13 11:38:56;;;;;;;5.30;1.63;;;;;;;;;;6277633;22;20469;-59
2021/09/13 11:41:22;;;;;;;8.10;1.83;;;;;;;;;;6277737;22;20150;-60
2021/09/13 11:43:58;;;;;;;8.77;2.38;;;;;;;;;;6277248;22;20136;-59
2021/09/13 11:46:24;;;;;;;5.13;1.77;;;;;;;;;;6277431;22;20222;-59
2021/09/13 11:48:50;;;;;;;4.15;1.98;;;;;;;;;;6277271;22;20170;-59
2021/09/13 11:51:15;;;;;;;7.38;1.80;;;;;;;;;;6277472;22;20552;-59
2021/09/13 11:53:42;;;;;;;7.65;2.10;;;;;;;;;;6277516;22;20139;-58
2021/09/13 11:56:11;;;;;;;7.70;2.10;;;;;;;;;;6277284;22;20221;-59
2021/09/13 11:58:43;;;;;;;6.15;1.75;;;;;;;;;;6277418;22;20167;-58
2021/09/13 12:01:18;;;;;;;4.25;1.38;;;;;;;;;;6250666;22;20147;-58
2021/09/13 12:03:44;;;;;;;5.57;1.58;;;;;;;;;;6277679;22;20411;-58
2021/09/13 12:06:18;;;;;;;5.30;1.65;;;;;;;;;;6277438;22;20249;-59
2021/09/13 12:08:44;;;;;;;3.55;1.63;;;;;;;;;;6278113;22;20126;-59
2021/09/13 12:11:10;;;;;;;3.40;1.70;;;;;;;;;;6277446;22;20143;-59
2021/09/13 12:13:36;;;;;;;6.65;1.80;;;;;;;;;;6277410;22;20143;-59
2021/09/13 12:16:02;;;;;;;5.47;1.58;;;;;;;;;;6278046;22;20185;-59
2021/09/13 12:18:30;;;;;;;7.65;1.67;;;;;;;;;;6277592;22;20167;-59
2021/09/13 12:20:56;;;;;;;5.85;1.25;;;;;;;;;;6278044;22;20479;-59
2021/09/13 12:23:25;;;;;;;9.02;2.08;;;;;;;;;;6277441;22;20155;-58
2021/09/13 12:25:53;;;;;;;4.53;1.58;;;;;;;;;;6277862;22;20143;-59
2021/09/13 12:28:20;;;;;;;4.70;1.52;;;;;;;;;;6277425;22;20150;-57
2021/09/13 12:30:50;;;;;;;6.85;2.05;;;;;;;;;;6277362;22;20150;-57
2021/09/13 12:33:16;;;;;;;4.80;1.85;;;;;;;;;;6250393;22;20143;-60
2021/09/13 12:35:44;;;;;;;6.03;1.55;;;;;;;;;;6277390;22;20530;-59
2021/09/13 12:38:14;;;;;;;4.38;1.50;;;;;;;;;;6277129;22;20220;-59
2021/09/13 12:46:31;;;;;;;4.13;1.55;;;;;;;;;;6181930;22;20206;31
2021/09/13 12:50:44;;;;;;;5.45;1.50;;;;;;;;;;6262295;22;20542;31
2021/09/13 12:53:14;;;;;;;7.25;1.40;;;;;;;;;;6228014;22;20190;31
2021/09/13 13:00:06;;;;;;;7.65;2.38;;;;;;;;;;6226659;22;20206;31
2021/09/13 13:13:41;;;;;;;2.72;1.48;;;;;;;;;;6203164;22;20206;31
2021/09/13 13:27:04;;;;;;;6.20;2.35;;;;;;;;;;6204539;22;20206;31
2021/09/13 13:31:41;;;;;;;8.98;1.90;;;;;;;;;;6206547;22;20515;31
2021/09/13 13:41:18;;;;;;;6.32;1.40;;;;;;;;;;6289013;22;20440;31
2021/09/13 13:53:00;;;;;;;6.75;1.45;;;;;;;;;;6292949;22;20543;-59
2021/09/13 14:02:29;;;;;;;;;;;;;;;;;;;;;
2021/09/13 14:09:04;;;;;;;4.28;1.40;;;;;;;;;;6227652;22;20201;31
2021/09/13 14:20:10;;;;;;;5.53;1.63;;;;;;;;;;6171268;22;20517;31
2021/09/13 14:42:51;;;;;;;3.33;1.50;;;;;;;;;;6346357;22;21046;31
2021/09/13 14:53:40;;;;;;;3.47;1.60;;;;;;;;;;6380508;21;20518;31
2021/09/13 15:00:45;;;;;;;3.75;1.80;;;;;;;;;;6293210;22;20272;31
2021/09/13 15:09:51;;;;;;;3.15;1.40;;;;;;;;;;6198336;22;20206;31
2021/09/13 15:14:00;;;;;;;3.85;1.60;;;;;;;;;;6231964;22;20522;31
2021/09/13 15:35:08;;;;;;;5.70;1.33;;;;;;;;;;6325665;22;20566;-58
2021/09/13 15:51:22;;;;;;;2.92;1.45;;;;;;;;;;6259529;22;20204;31
2021/09/13 15:59:18;;;;;;;3.95;1.60;;;;;;;;;;6144121;23;20203;31
2021/09/13 16:17:06;;;;;;;6.95;1.90;;;;;;;;;;6326087;22;20504;31
2021/09/13 16:30:31;;;;;;;4.93;1.70;;;;;;;;;;6294791;22;20588;31
2021/09/13 16:46:52;;;;;;;6.05;1.85;;;;;;;;;;6290696;22;20202;31
2021/09/13 16:51:04;;;;;;;6.75;1.42;;;;;;;;;;6294306;22;20515;31
2021/09/13 17:28:47;;;;;;;2.47;1.60;;;;;;;;;;6289365;22;20199;31
2021/09/13 17:33:57;;;;;;;3.20;1.60;;;;;;;;;;5887121;22;20568;31
2021/09/13 17:54:34;;;;;;;5.85;1.90;;;;;;;;;;5895305;22;20568;-60
2021/09/13 18:25:19;;;;;;;5.85;2.40;;;;;;;;;;6229190;22;20208;31
2021/09/13 18:46:02;;;;;;;6.57;2.35;;;;;;;;;;6258629;22;20220;31
2021/09/13 18:51:11;;;;;;;6.82;2.58;;;;;;;;;;6354617;22;20521;-61
2021/09/13 18:58:03;;;;;;;5.05;2.63;;;;;;;;;;6323240;22;20513;31
2021/09/13 19:07:05;;;;;;;3.97;2.40;;;;;;;;;;6197254;22;20198;31
2021/09/13 19:21:31;;;;;;;4.82;2.28;;;;;;;;;;6320877;22;20199;31
2021/09/13 19:49:23;;;;;;;5.10;2.30;;;;;;;;;;5573905;23;23370;31
2021/09/13 20:15:53;;;;;;;7.78;2.40;;;;;;;;;;6323148;22;20525;31
2021/09/13 20:30:09;;;;;;;6.38;2.70;;;;;;;;;;6223159;22;20546;31
2021/09/13 20:39:25;;;;;;;3.83;2.10;;;;;;;;;;6265670;22;21328;-61
2021/09/13 20:44:08;;;;;;;4.55;2.28;;;;;;;;;;6348254;22;20514;31
2021/09/13 20:58:13;;;;;;;3.95;2.60;;;;;;;;;;6170753;22;21418;-61
2021/09/13 21:07:44;;;;;;;7.15;3.00;;;;;;;;;;6290063;22;20203;31
2021/09/13 21:14:35;;;;;;;4.18;2.80;;;;;;;;;;5775771;23;20902;31
2021/09/13 21:21:43;;;;;;;4.85;3.05;;;;;;;;;;6291698;22;20202;31
2021/09/13 21:46:51;;;;;;;5.22;3.55;;;;;;;;;;6170180;22;20521;-61
2021/09/13 21:49:17;;;;;;;5.25;2.95;;;;;;;;;;6143979;23;20200;31
2021/09/13 22:03:35;;;;;;;5.90;2.97;;;;;;;;;;5847651;22;20204;31
2021/09/13 22:10:13;;;;;;;4.75;3.35;;;;;;;;;;6289989;22;20208;31
2021/09/13 22:28:31;;;;;;;9.43;3.72;;;;;;;;;;6349304;22;20571;31
2021/09/13 22:37:35;;;;;;;6.18;3.97;;;;;;;;;;6320816;22;20204;31
2021/09/13 22:44:10;;;;;;;7.63;4.13;;;;;;;;;;6229223;22;20193;31
2021/09/13 22:58:25;;;;;;;5.88;3.83;;;;;;;;;;6345080;22;20203;31
2021/09/13 23:19:47;;;;;;;7.65;4.13;;;;;;;;;;6290031;22;20196;-61
2021/09/13 23:24:09;;;;;;;7.43;4.05;;;;;;;;;;6336137;22;20526;31
2021/09/13 23:40:28;;;;;;;7.43;3.92;;;;;;;;;;6203888;22;20202;31
2021/09/13 23:58:44;;;;;;;8.90;3.53;;;;;;;;;;6230712;22;20761;31
